Time;durP1;ratioP1;P1;durP2;ratioP2;P2;SDS_P1;SDS_P2;PMS_P1;PMS_P2;Temp;Humidity;BMP_temperature;BMP_pressure;BME280_temperature;BME280_humidity;BME280_pressure;Samples;Min_cycle;Max_cycle;Signal;HPM_P1;HPM_P2
2021/09/11 00:00:48;;;;;;;7.53;6.82;;;;;;;22.09;61.40;95808.78;5099751;28;20200;-85
2021/09/11 00:03:14;;;;;;;7.90;7.20;;;;;;;22.12;61.39;95808.31;5098250;28;20268;-85
2021/09/11 00:05:41;;;;;;;7.82;7.20;;;;;;;22.12;61.63;95806.47;5099018;28;20242;-84
2021/09/11 00:08:07;;;;;;;8.48;7.60;;;;;;;22.01;62.61;95808.16;5097704;28;20227;-84
2021/09/11 00:10:36;;;;;;;7.50;6.90;;;;;;;21.97;63.12;95803.59;5099110;28;20200;-85
2021/09/11 00:13:03;;;;;;;7.72;7.13;;;;;;;21.95;62.80;95801.22;5098136;28;20739;-85
2021/09/11 00:15:32;;;;;;;8.07;7.38;;;;;;;21.92;63.49;95806.19;5097688;28;20200;-85
2021/09/11 00:18:00;;;;;;;8.98;8.27;;;;;;;21.86;64.44;95801.91;5098553;28;20195;-84
2021/09/11 00:20:28;;;;;;;9.65;8.63;;;;;;;21.85;64.81;95803.72;5098447;28;20200;-85
2021/09/11 00:22:55;;;;;;;9.38;8.57;;;;;;;21.91;65.04;95804.59;5098406;28;20204;-84
2021/09/11 00:25:22;;;;;;;10.45;9.55;;;;;;;21.89;66.29;95807.47;5098871;28;20245;-84
2021/09/11 00:27:48;;;;;;;10.88;9.77;;;;;;;21.81;68.44;95807.84;5083254;28;20564;-85
2021/09/11 00:30:15;;;;;;;13.10;11.35;;;;;;;21.80;69.16;95808.09;5089363;28;20193;-85
2021/09/11 00:32:43;;;;;;;12.27;11.18;;;;;;;21.77;70.07;95811.19;5078733;28;20204;-84
2021/09/11 00:35:12;;;;;;;12.60;11.30;;;;;;;21.70;72.10;95812.19;5078004;28;20652;-84
2021/09/11 00:37:38;;;;;;;13.02;11.70;;;;;;;21.70;71.54;95806.13;5078314;28;20234;-85
2021/09/11 00:40:06;;;;;;;12.15;11.05;;;;;;;21.67;70.98;95804.00;5078364;28;20225;-85
2021/09/11 00:42:32;;;;;;;14.25;11.80;;;;;;;21.61;73.05;95807.56;5077688;28;20208;-85
2021/09/11 00:44:59;;;;;;;12.48;11.38;;;;;;;21.61;73.59;95804.94;5077965;28;20216;-84
2021/09/11 00:47:26;;;;;;;12.02;11.02;;;;;;;21.61;72.81;95815.44;5077804;28;20201;-84
2021/09/11 00:49:52;;;;;;;13.15;12.05;;;;;;;21.58;74.21;95808.03;5077235;28;20287;-85
2021/09/11 00:52:21;;;;;;;11.98;10.98;;;;;;;21.53;75.05;95821.88;5077262;28;20266;-85
2021/09/11 00:54:48;;;;;;;12.63;11.63;;;;;;;21.51;73.33;95812.66;5077485;28;20626;-84
2021/09/11 00:57:15;;;;;;;12.63;11.52;;;;;;;21.47;74.07;95809.72;5077126;28;20207;-85
2021/09/11 00:59:41;;;;;;;13.10;11.90;;;;;;;21.50;73.55;95819.75;5078835;28;20281;-85
2021/09/11 01:02:09;;;;;;;13.02;11.82;;;;;;;21.46;74.50;95810.75;5077796;28;20251;-85
2021/09/11 01:04:35;;;;;;;13.23;11.93;;;;;;;21.45;73.96;95809.16;5076726;28;20215;-84
2021/09/11 01:07:02;;;;;;;13.60;12.40;;;;;;;21.47;73.83;95811.56;5076638;28;20201;-84
2021/09/11 01:09:31;;;;;;;12.98;11.85;;;;;;;21.43;73.69;95806.00;5096121;28;20224;-85
2021/09/11 01:11:58;;;;;;;13.27;12.18;;;;;;;21.41;74.17;95808.06;5097335;28;20208;-85
2021/09/11 01:14:25;;;;;;;13.65;12.43;;;;;;;21.34;73.93;95816.09;5097600;28;20212;-84
2021/09/11 01:16:51;;;;;;;13.00;11.80;;;;;;;21.30;75.70;95814.19;5097988;28;20215;-84
2021/09/11 01:19:17;;;;;;;14.13;12.68;;;;;;;21.26;75.64;95820.91;5098163;28;20278;-85
2021/09/11 01:21:44;;;;;;;13.77;12.57;;;;;;;21.25;77.32;95821.94;5097910;28;20204;-84
2021/09/11 01:24:12;;;;;;;14.25;12.73;;;;;;;21.28;76.10;95818.88;5097503;28;20200;-85
2021/09/11 01:26:38;;;;;;;13.35;12.13;;;;;;;21.27;75.80;95822.50;5096511;28;20624;-84
2021/09/11 01:29:09;;;;;;;12.48;11.45;;;;;;;21.27;74.26;95818.06;5097513;28;20619;-84
2021/09/11 01:31:36;;;;;;;12.85;11.60;;;;;;;21.29;74.64;95813.38;5097187;28;20223;-84
2021/09/11 01:34:02;;;;;;;13.20;12.00;;;;;;;21.20;75.87;95814.00;5097333;28;20207;-84
2021/09/11 01:36:29;;;;;;;12.93;11.93;;;;;;;21.17;76.32;95824.91;5098690;28;20212;-85
2021/09/11 01:38:56;;;;;;;13.35;12.13;;;;;;;21.20;75.79;95811.38;5098697;28;20756;-85
2021/09/11 01:41:23;;;;;;;13.20;12.10;;;;;;;21.23;75.74;95816.94;5098760;28;20212;-84
2021/09/11 01:43:50;;;;;;;13.50;12.23;;;;;;;21.20;76.20;95816.63;5097327;28;20241;-84
2021/09/11 01:46:17;;;;;;;12.88;11.77;;;;;;;21.21;75.52;95813.75;5097143;28;20246;-84
2021/09/11 01:48:44;;;;;;;12.70;11.70;;;;;;;21.17;77.32;95815.22;5096428;28;20238;-84
2021/09/11 01:51:11;;;;;;;13.90;12.80;;;;;;;21.18;75.86;95816.81;5096972;28;20207;-85
2021/09/11 01:53:37;;;;;;;12.63;11.52;;;;;;;21.15;75.40;95814.69;5097497;28;20204;-84
2021/09/11 01:56:04;;;;;;;13.98;12.77;;;;;;;21.11;77.93;95825.88;5096689;28;20722;-84
2021/09/11 01:58:32;;;;;;;12.27;11.15;;;;;;;21.07;76.06;95819.53;5098113;28;20235;-84
2021/09/11 02:00:58;;;;;;;12.68;11.57;;;;;;;21.08;76.24;95821.09;5098737;28;20665;-84
2021/09/11 02:03:25;;;;;;;12.10;11.10;;;;;;;21.11;76.37;95831.13;5097762;28;20214;-84
2021/09/11 02:05:51;;;;;;;12.27;11.18;;;;;;;21.09;75.73;95827.94;5096789;28;20211;-84
2021/09/11 02:08:17;;;;;;;12.00;11.10;;;;;;;21.14;74.89;95841.13;5095129;28;20227;-84
2021/09/11 02:10:44;;;;;;;11.98;11.07;;;;;;;21.12;74.32;95835.31;5096480;28;20694;-84
2021/09/11 02:13:10;;;;;;;12.18;11.18;;;;;;;21.15;74.50;95843.50;5096824;28;20204;-84
2021/09/11 02:15:38;;;;;;;11.65;10.65;;;;;;;21.17;74.71;95845.88;5096642;28;20207;-84
2021/09/11 02:18:05;;;;;;;11.73;10.82;;;;;;;21.16;74.22;95846.94;5095856;28;20200;-84
2021/09/11 02:20:31;;;;;;;11.15;10.25;;;;;;;21.16;73.68;95846.94;5095103;28;20579;-84
2021/09/11 02:22:57;;;;;;;11.10;10.20;;;;;;;21.16;73.93;95847.72;5095737;28;20218;-84
2021/09/11 02:25:24;;;;;;;10.57;9.57;;;;;;;21.17;73.52;95851.09;5095490;28;20204;-84
2021/09/11 02:27:50;;;;;;;10.45;9.50;;;;;;;21.22;73.45;95852.03;5080386;28;20230;-84
2021/09/11 02:30:17;;;;;;;10.82;9.88;;;;;;;21.22;73.33;95846.78;5075518;28;20217;-84
2021/09/11 02:32:44;;;;;;;10.10;9.30;;;;;;;21.22;73.57;95849.41;5075103;28;20258;-84
2021/09/11 02:35:11;;;;;;;11.18;10.18;;;;;;;21.22;73.02;95859.09;5081363;28;20203;-84
2021/09/11 02:37:38;;;;;;;10.15;9.35;;;;;;;21.23;73.34;95858.06;5095378;28;20222;-84
2021/09/11 02:40:05;;;;;;;9.98;9.18;;;;;;;21.25;73.25;95859.41;5095508;28;20262;-84
2021/09/11 02:42:31;;;;;;;10.45;9.15;;;;;;;21.23;74.20;95858.84;5096062;28;20208;-84
2021/09/11 02:44:58;;;;;;;11.07;10.10;;;;;;;21.15;75.48;95859.22;5095786;28;20206;-84
2021/09/11 02:47:24;;;;;;;10.02;9.25;;;;;;;21.04;75.78;95860.84;5097930;28;20671;-84
2021/09/11 02:49:52;;;;;;;10.30;9.50;;;;;;;21.10;75.11;95868.81;5096856;28;20695;-84
2021/09/11 02:52:18;;;;;;;10.77;9.88;;;;;;;21.08;76.21;95869.03;5097784;28;20203;-84
2021/09/11 02:54:45;;;;;;;9.68;8.98;;;;;;;21.04;76.77;95870.53;5098237;28;20200;-84
2021/09/11 02:57:11;;;;;;;10.00;8.88;;;;;;;21.07;74.81;95869.28;5087670;28;20209;-84
2021/09/11 02:59:38;;;;;;;8.75;7.97;;;;;;;21.03;74.02;95872.34;5079074;28;20583;-84
2021/09/11 03:02:09;;;;;;;8.15;7.45;;;;;;;20.87;75.47;95865.25;5078664;28;20227;-84
2021/09/11 03:04:35;;;;;;;7.13;6.63;;;;;;;20.92;73.48;95872.41;5077638;28;20212;-84
2021/09/11 03:07:04;;;;;;;7.00;6.40;;;;;;;20.91;72.45;95873.44;5077269;28;20200;-84
2021/09/11 03:09:30;;;;;;;6.97;6.28;;;;;;;20.94;72.30;95870.34;5097085;28;20248;-84
2021/09/11 03:11:56;;;;;;;6.30;5.80;;;;;;;20.88;73.07;95869.47;5098241;28;20674;-84
2021/09/11 03:14:23;;;;;;;6.10;5.50;;;;;;;20.76;72.33;95871.34;5097822;28;20253;-84
2021/09/11 03:16:49;;;;;;;5.95;5.45;;;;;;;20.78;72.42;95865.88;5098293;28;20219;-85
2021/09/11 03:19:16;;;;;;;5.97;5.57;;;;;;;20.79;72.09;95864.81;5097157;28;20278;-86
2021/09/11 03:21:42;;;;;;;5.90;5.40;;;;;;;20.67;72.89;95860.44;5098409;28;20261;-86
2021/09/11 03:24:10;;;;;;;6.40;5.90;;;;;;;20.63;72.33;95864.53;5097163;28;20206;-86
2021/09/11 03:26:36;;;;;;;5.70;5.30;;;;;;;20.68;72.83;95858.63;5097483;28;20204;-86
2021/09/11 03:29:03;;;;;;;5.72;5.32;;;;;;;20.69;72.63;95860.19;5097322;28;20277;-86
2021/09/11 03:31:29;;;;;;;5.57;5.18;;;;;;;20.66;73.65;95856.22;5097442;28;20203;-86
2021/09/11 03:33:56;;;;;;;5.65;5.18;;;;;;;20.68;73.67;95856.00;5084674;28;20208;-84
2021/09/11 03:36:22;;;;;;;5.80;5.40;;;;;;;20.72;72.67;95854.50;5097039;28;20200;-84
2021/09/11 03:38:49;;;;;;;5.78;5.38;;;;;;;20.73;72.94;95850.06;5098604;28;20238;-84
2021/09/11 03:41:17;;;;;;;5.75;5.35;;;;;;;20.73;72.94;95853.47;5097526;28;20206;-84
2021/09/11 03:43:43;;;;;;;6.28;5.68;;;;;;;20.72;73.74;95851.09;5097305;28;20671;-84
2021/09/11 03:46:10;;;;;;;6.55;6.05;;;;;;;20.67;74.06;95843.94;5097187;28;20208;-84
2021/09/11 03:48:36;;;;;;;5.80;5.30;;;;;;;20.65;73.63;95843.38;5097417;28;20224;-84
2021/09/11 03:51:03;;;;;;;5.80;5.40;;;;;;;20.64;74.20;95839.97;5096226;28;20208;-84
2021/09/11 03:53:29;;;;;;;5.75;5.28;;;;;;;20.63;74.65;95846.22;5095821;28;20283;-84
2021/09/11 03:55:56;;;;;;;5.65;5.22;;;;;;;20.54;73.89;95841.59;5095736;28;20200;-84
2021/09/11 03:58:23;;;;;;;5.20;4.80;;;;;;;20.40;74.32;95840.28;5075892;28;20233;-84
2021/09/11 04:00:50;;;;;;;5.47;5.07;;;;;;;20.42;74.32;95844.22;5075629;28;20691;-84
2021/09/11 04:03:16;;;;;;;5.20;4.80;;;;;;;20.38;73.97;95842.34;5075640;28;20212;-84
2021/09/11 04:05:43;;;;;;;5.45;5.05;;;;;;;20.44;73.92;95846.63;5089329;28;20204;-84
2021/09/11 04:08:09;;;;;;;5.20;4.80;;;;;;;20.44;73.91;95844.00;5094920;28;20224;-84
2021/09/11 04:10:36;;;;;;;5.40;5.00;;;;;;;20.43;73.76;95837.97;5095841;28;20582;-84
2021/09/11 04:13:02;;;;;;;5.20;4.72;;;;;;;20.39;73.71;95836.88;5096580;28;20211;-84
2021/09/11 04:15:30;;;;;;;5.10;4.70;;;;;;;20.44;73.48;95836.94;5096445;28;20203;-84
2021/09/11 04:17:57;;;;;;;5.30;4.90;;;;;;;20.45;73.60;95833.31;5096714;28;20207;-84
2021/09/11 04:20:23;;;;;;;5.10;4.70;;;;;;;20.38;73.84;95835.28;5096214;28;20196;-84
2021/09/11 04:22:49;;;;;;;4.68;4.38;;;;;;;20.38;73.74;95829.25;5096660;28;20320;-84
2021/09/11 04:25:16;;;;;;;5.47;5.00;;;;;;;20.39;74.57;95833.47;5095034;28;20204;-84
2021/09/11 04:27:42;;;;;;;4.78;4.38;;;;;;;20.46;73.80;95828.88;5094610;28;20200;-84
2021/09/11 04:30:10;;;;;;;5.35;4.85;;;;;;;20.45;73.79;95835.94;5094907;28;20228;-84
2021/09/11 04:32:38;;;;;;;4.85;4.40;;;;;;;20.49;73.99;95839.66;5097362;28;20200;-84
2021/09/11 04:35:05;;;;;;;5.50;5.00;;;;;;;20.44;76.68;95838.78;5097124;28;20748;-84
2021/09/11 04:37:31;;;;;;;5.47;5.00;;;;;;;20.42;76.27;95841.63;5097772;28;20606;-84
2021/09/11 04:39:59;;;;;;;5.75;5.25;;;;;;;20.43;76.27;95848.44;5097551;28;20636;-83
2021/09/11 04:42:25;;;;;;;5.72;5.22;;;;;;;20.39;76.37;95841.31;5097142;28;20294;-84
2021/09/11 04:44:51;;;;;;;5.50;5.07;;;;;;;20.29;77.27;95847.88;5096931;28;20249;-84
2021/09/11 04:47:18;;;;;;;5.60;5.20;;;;;;;20.30;76.92;95844.25;5080642;28;20200;-84
2021/09/11 04:49:46;;;;;;;6.22;5.32;;;;;;;20.24;78.04;95846.97;5077048;28;20239;-84
2021/09/11 04:52:12;;;;;;;6.00;5.50;;;;;;;20.31;76.64;95847.66;5074252;28;20208;-88
2021/09/11 04:54:39;;;;;;;5.82;5.25;;;;;;;20.34;76.08;95845.38;5075373;28;20205;-83
2021/09/11 04:57:05;;;;;;;5.43;4.95;;;;;;;20.40;75.56;95843.66;5075995;28;20205;-83
2021/09/11 04:59:32;;;;;;;5.05;4.65;;;;;;;20.35;76.56;95840.94;5088649;28;20235;-83
2021/09/11 05:01:58;;;;;;;5.88;5.40;;;;;;;20.37;76.41;95848.59;5090871;28;20605;-83
2021/09/11 05:04:25;;;;;;;5.57;5.13;;;;;;;20.32;76.92;95839.56;5085927;28;20215;-83
2021/09/11 05:06:53;;;;;;;5.47;5.07;;;;;;;20.35;76.16;95851.41;5076534;28;20273;-84
2021/09/11 05:09:20;;;;;;;5.50;5.00;;;;;;;20.35;76.29;95856.63;5094155;28;20668;-83
2021/09/11 05:11:47;;;;;;;6.05;5.55;;;;;;;20.23;78.04;95861.88;5082255;28;20602;-84
2021/09/11 05:14:13;;;;;;;5.47;5.00;;;;;;;20.29;76.99;95860.16;5074960;28;20200;-83
2021/09/11 05:16:40;;;;;;;5.50;5.10;;;;;;;20.29;77.31;95868.00;5076404;28;20197;-84
2021/09/11 05:19:06;;;;;;;5.50;5.00;;;;;;;20.34;76.23;95862.88;5076575;28;20220;-83
2021/09/11 05:21:33;;;;;;;5.60;5.20;;;;;;;20.33;76.30;95866.53;5077122;28;20193;-83
2021/09/11 05:24:00;;;;;;;5.45;5.05;;;;;;;20.39;76.21;95873.50;5076029;28;20212;-83
2021/09/11 05:26:27;;;;;;;6.10;5.60;;;;;;;20.44;76.15;95875.41;5075282;28;20254;-83
2021/09/11 05:28:53;;;;;;;5.53;5.00;;;;;;;20.34;76.64;95881.19;5076520;28;20228;-83
2021/09/11 05:31:20;;;;;;;5.70;5.30;;;;;;;20.33;76.57;95880.41;5074440;28;20228;-84
2021/09/11 05:33:46;;;;;;;5.65;5.22;;;;;;;20.36;76.15;95879.16;5075695;28;20205;-83
2021/09/11 05:36:13;;;;;;;5.80;5.30;;;;;;;20.38;76.38;95887.59;5075256;28;20611;-84
2021/09/11 05:38:39;;;;;;;6.05;5.45;;;;;;;20.39;76.64;95891.81;5076809;28;20221;-84
2021/09/11 05:41:07;;;;;;;5.82;5.32;;;;;;;20.45;76.63;95884.84;5075277;28;20659;-83
2021/09/11 05:43:34;;;;;;;5.78;5.28;;;;;;;20.51;76.27;95891.75;5074436;28;20212;-84
2021/09/11 05:46:00;;;;;;;5.95;5.40;;;;;;;20.49;76.88;95888.59;5074960;28;20197;-84
2021/09/11 05:48:26;;;;;;;5.43;5.03;;;;;;;20.48;76.68;95892.22;5075138;28;20692;-84
2021/09/11 05:50:53;;;;;;;5.70;5.20;;;;;;;20.51;76.87;95891.75;5074104;28;20270;-84
2021/09/11 05:53:20;;;;;;;5.72;5.22;;;;;;;20.51;77.16;95889.16;5085196;28;20204;-84
2021/09/11 05:55:46;;;;;;;5.47;4.97;;;;;;;20.55;76.50;95892.91;5094232;28;20196;-84
2021/09/11 05:58:14;;;;;;;5.85;5.35;;;;;;;20.56;77.05;95891.88;5093676;28;20254;-85
2021/09/11 06:00:41;;;;;;;5.72;5.32;;;;;;;20.52;77.29;95901.22;5095070;28;20211;-84
2021/09/11 06:03:07;;;;;;;5.60;5.20;;;;;;;20.56;77.12;95900.53;5094182;28;20212;-84
2021/09/11 06:05:34;;;;;;;6.18;5.68;;;;;;;20.59;76.89;95891.41;5093941;28;20204;-84
2021/09/11 06:08:00;;;;;;;5.75;5.30;;;;;;;20.56;77.49;95902.34;5093885;28;20269;-84
2021/09/11 06:10:27;;;;;;;6.18;5.68;;;;;;;20.57;77.09;95894.25;5092501;28;20227;-83
2021/09/11 06:12:53;;;;;;;6.07;5.57;;;;;;;20.59;76.47;95888.81;5073930;28;20196;-84
2021/09/11 06:15:21;;;;;;;5.90;5.40;;;;;;;20.63;76.57;95903.78;5083653;28;20196;-84
2021/09/11 06:17:48;;;;;;;6.60;6.00;;;;;;;20.63;76.45;95890.69;5076374;28;20246;-84
2021/09/11 06:20:15;;;;;;;8.00;5.38;;;;;;;20.58;76.72;95890.63;5092746;28;20238;-83
2021/09/11 06:22:41;;;;;;;5.40;5.00;;;;;;;20.65;76.17;95893.09;5095691;28;20188;-83
2021/09/11 06:25:09;;;;;;;5.15;4.75;;;;;;;20.66;76.21;95892.06;5095048;28;20204;-83
2021/09/11 06:27:35;;;;;;;5.90;5.50;;;;;;;20.63;76.12;95895.94;5095138;28;20299;-83
2021/09/11 06:30:02;;;;;;;5.70;5.30;;;;;;;20.56;77.18;95891.88;5095355;28;20285;-84
2021/09/11 06:32:31;;;;;;;6.00;5.50;;;;;;;20.55;77.19;95892.91;5077198;28;20193;-84
2021/09/11 06:34:57;;;;;;;6.30;5.75;;;;;;;20.56;76.92;95895.28;5084470;28;20200;-84
2021/09/11 06:37:27;;;;;;;5.97;5.38;;;;;;;20.64;76.57;95886.25;5074116;28;20192;-83
2021/09/11 06:39:54;;;;;;;5.70;5.20;;;;;;;20.70;76.40;95895.81;5054187;22;20229;-84
2021/09/11 06:42:52;;;;;;;5.13;4.72;;;;;;;20.64;76.88;95894.91;5049552;28;20565;-85
2021/09/11 06:45:19;;;;;;;5.50;5.10;;;;;;;20.65;76.35;95898.31;5045012;28;20292;-84
2021/09/11 06:47:46;;;;;;;5.57;5.18;;;;;;;20.57;76.74;95889.03;5051107;28;20205;-84
2021/09/11 06:50:13;;;;;;;5.30;4.90;;;;;;;20.67;76.57;95898.88;5050399;28;20232;-84
2021/09/11 06:52:39;;;;;;;5.35;4.95;;;;;;;20.66;76.64;95894.69;5050390;28;20197;-84
2021/09/11 06:55:06;;;;;;;5.60;5.20;;;;;;;20.62;76.59;95896.97;5049781;28;20201;-84
2021/09/11 06:57:33;;;;;;;5.57;5.18;;;;;;;20.68;77.09;95892.63;5037794;28;20214;-83
2021/09/11 06:59:59;;;;;;;5.43;5.03;;;;;;;20.66;76.79;95897.28;5037629;28;20213;-83
2021/09/11 07:02:26;;;;;;;5.00;4.60;;;;;;;20.60;76.71;95892.97;5051621;28;20646;-83
2021/09/11 07:04:53;;;;;;;5.47;4.97;;;;;;;20.70;76.36;95895.81;5051186;28;20205;-83
2021/09/11 07:07:20;;;;;;;4.93;4.50;;;;;;;20.71;75.72;95900.03;5049793;28;20209;-84
2021/09/11 07:09:46;;;;;;;5.35;4.95;;;;;;;20.79;75.67;95891.78;5044183;28;20224;-84
2021/09/11 07:12:15;;;;;;;4.68;4.32;;;;;;;20.86;75.29;95897.69;5050022;28;20615;-84
2021/09/11 07:14:41;;;;;;;4.43;4.13;;;;;;;20.91;74.93;95905.66;5048253;28;20258;-84
2021/09/11 07:17:08;;;;;;;5.32;4.90;;;;;;;20.92;74.12;95899.38;5050396;28;20574;-84
2021/09/11 07:19:34;;;;;;;5.20;4.80;;;;;;;20.98;73.40;95895.81;5050075;28;20217;-84
2021/09/11 07:22:02;;;;;;;4.35;4.05;;;;;;;21.23;72.45;95892.09;5050826;28;20209;-85
2021/09/11 07:24:28;;;;;;;4.97;4.53;;;;;;;21.53;72.10;95890.00;5050399;28;20243;-85
2021/09/11 07:26:55;;;;;;;4.50;4.20;;;;;;;21.64;70.97;95885.72;5050139;28;20197;-84
2021/09/11 07:29:21;;;;;;;4.82;4.40;;;;;;;21.62;68.97;95887.78;5050253;28;20217;-86
2021/09/11 07:31:48;;;;;;;4.57;4.18;;;;;;;21.82;69.08;95885.47;5050365;28;20229;-83
2021/09/11 07:34:14;;;;;;;4.80;4.35;;;;;;;22.18;67.69;95886.00;5049862;28;20275;-84
2021/09/11 07:36:41;;;;;;;4.90;4.53;;;;;;;22.31;66.99;95891.72;5050537;28;20220;-85
2021/09/11 07:39:09;;;;;;;4.90;4.50;;;;;;;22.18;65.62;95889.44;5050585;28;20229;-85
2021/09/11 07:41:35;;;;;;;4.90;4.32;;;;;;;22.09;65.54;95892.72;5050299;28;20673;-84
2021/09/11 07:44:02;;;;;;;4.72;4.32;;;;;;;22.08;66.20;95891.91;5050017;28;20205;-85
2021/09/11 07:46:31;;;;;;;4.95;4.55;;;;;;;22.07;66.20;95894.78;5050513;28;20201;-85
2021/09/11 07:48:57;;;;;;;4.88;4.47;;;;;;;22.02;66.83;95898.13;5050368;28;20592;-85
2021/09/11 07:51:24;;;;;;;4.90;4.50;;;;;;;22.06;67.24;95894.00;5050034;28;20221;-84
2021/09/11 07:53:50;;;;;;;4.78;4.38;;;;;;;22.08;67.47;95905.03;5050050;28;20208;-83
2021/09/11 07:56:19;;;;;;;4.85;4.45;;;;;;;22.03;66.93;95897.88;5049748;28;20205;-84
2021/09/11 07:58:46;;;;;;;4.60;4.20;;;;;;;21.91;65.91;95897.16;5049901;28;20390;-84
2021/09/11 08:01:12;;;;;;;4.75;4.35;;;;;;;21.82;65.59;95898.59;5050018;28;20205;-83
2021/09/11 08:03:39;;;;;;;5.05;4.63;;;;;;;21.75;66.12;95905.81;5050413;28;20576;-85
2021/09/11 08:06:08;;;;;;;5.00;4.47;;;;;;;21.69;66.13;95894.47;5052231;28;20229;-84
2021/09/11 08:08:35;;;;;;;4.35;4.05;;;;;;;21.68;66.26;95902.56;5053983;28;20286;-84
2021/09/11 08:11:02;;;;;;;4.72;4.43;;;;;;;21.82;66.35;95893.34;5053919;28;20256;-84
2021/09/11 08:13:30;;;;;;;4.50;4.20;;;;;;;21.90;66.19;95898.19;5053808;28;20201;-84
2021/09/11 08:15:56;;;;;;;5.32;4.82;;;;;;;22.03;66.41;95899.72;5054078;28;20213;-84
2021/09/11 08:18:24;;;;;;;5.15;4.75;;;;;;;22.04;65.51;95907.34;5053669;28;20640;-85
2021/09/11 08:20:51;;;;;;;5.05;4.55;;;;;;;22.17;64.58;95906.19;5054270;28;20206;-84
2021/09/11 08:23:18;;;;;;;4.80;4.40;;;;;;;22.01;63.00;95905.19;5054188;28;20622;-84
2021/09/11 08:25:45;;;;;;;4.95;4.55;;;;;;;22.11;63.92;95907.19;5054290;28;20296;-84
2021/09/11 08:28:11;;;;;;;4.93;4.40;;;;;;;22.14;63.10;95903.25;5053623;28;20205;-83
2021/09/11 08:30:39;;;;;;;4.90;4.50;;;;;;;22.30;63.46;95911.13;5054311;28;20255;-83
2021/09/11 08:33:06;;;;;;;4.43;4.13;;;;;;;22.24;63.18;95909.47;5053968;28;20205;-84
2021/09/11 08:35:32;;;;;;;5.10;4.60;;;;;;;22.40;63.17;95913.06;5053608;28;20205;-86
2021/09/11 08:37:59;;;;;;;5.20;4.70;;;;;;;22.49;63.89;95908.22;5053530;28;20197;-83
2021/09/11 08:40:27;;;;;;;4.45;4.05;;;;;;;22.58;62.66;95909.38;5053159;28;20208;-85
2021/09/11 08:42:53;;;;;;;4.30;4.00;;;;;;;22.65;62.92;95902.91;5053780;28;20205;-84
2021/09/11 08:45:20;;;;;;;4.97;4.57;;;;;;;22.75;62.47;95904.84;5053356;28;20201;-84
2021/09/11 08:47:58;;;;;;;4.50;4.20;;;;;;;22.75;62.80;95908.25;5053421;28;20373;-84
2021/09/11 08:50:26;;;;;;;5.07;4.57;;;;;;;22.72;62.88;95902.69;5053078;28;20688;-85
2021/09/11 08:52:55;;;;;;;4.13;3.83;;;;;;;22.68;61.60;95906.88;5053143;28;20206;-84
2021/09/11 08:55:21;;;;;;;4.40;4.10;;;;;;;22.68;62.47;95912.91;5052615;28;20198;-85
2021/09/11 08:57:58;;;;;;;4.82;4.43;;;;;;;22.57;62.22;95913.03;5052631;28;20209;-84
2021/09/11 09:00:41;;;;;;;4.68;4.28;;;;;;;22.40;61.89;95906.00;5053044;28;20197;-85
2021/09/11 09:03:30;;;;;;;4.53;4.13;;;;;;;22.35;62.49;95902.50;5053199;28;20209;-84
2021/09/11 09:06:09;;;;;;;5.13;4.72;;;;;;;22.44;62.71;95908.13;5052485;28;20229;-84
2021/09/11 09:08:35;;;;;;;4.90;4.50;;;;;;;22.55;62.50;95912.47;5052822;28;20623;-83
2021/09/11 09:11:17;;;;;;;5.10;4.60;;;;;;;22.68;61.85;95912.13;5052618;28;20232;-83
2021/09/11 09:13:52;;;;;;;5.10;4.70;;;;;;;22.79;61.61;95908.59;5052515;28;20206;-85
2021/09/11 09:16:19;;;;;;;4.95;4.63;;;;;;;22.79;61.55;95911.22;5050527;28;20208;-84
2021/09/11 09:18:47;;;;;;;5.05;4.65;;;;;;;22.93;61.25;95901.94;5051989;28;20221;-84
2021/09/11 09:21:22;;;;;;;5.45;4.95;;;;;;;23.05;60.91;95907.84;5051857;28;20197;-84
2021/09/11 09:23:50;;;;;;;5.35;4.95;;;;;;;22.95;60.77;95904.31;5051931;28;20208;-84
2021/09/11 09:26:17;;;;;;;5.47;4.97;;;;;;;22.92;61.05;95907.44;5051829;28;20204;-84
2021/09/11 09:28:59;;;;;;;5.13;4.72;;;;;;;22.98;61.65;95909.88;5052232;28;20240;-83
2021/09/11 09:31:28;;;;;;;5.45;5.05;;;;;;;22.97;62.06;95913.53;5052256;28;20762;-84
2021/09/11 09:33:55;;;;;;;6.05;5.45;;;;;;;22.91;60.97;95905.84;5051939;28;20263;-84
2021/09/11 09:36:22;;;;;;;5.78;5.30;;;;;;;22.79;61.62;95897.31;5052247;28;20209;-84
2021/09/11 09:38:59;;;;;;;5.85;5.35;;;;;;;22.70;61.85;95905.59;5052238;28;20228;-83
2021/09/11 09:41:26;;;;;;;5.50;5.00;;;;;;;22.72;62.22;95902.69;5052522;28;20701;-84
2021/09/11 09:43:52;;;;;;;5.30;4.90;;;;;;;22.73;62.01;95899.03;5052713;28;20227;-84
2021/09/11 09:46:20;;;;;;;5.55;5.05;;;;;;;22.73;62.21;95897.22;5052603;28;20202;-84
2021/09/11 09:48:48;;;;;;;6.72;4.88;;;;;;;22.86;61.81;95911.84;5052889;28;20225;-83
2021/09/11 09:51:17;;;;;;;5.13;4.72;;;;;;;22.88;60.93;95906.34;5051949;28;20225;-84
2021/09/11 09:53:48;;;;;;;5.38;4.97;;;;;;;22.90;61.39;95915.53;5051970;28;20205;-84
2021/09/11 09:56:14;;;;;;;6.18;4.97;;;;;;;22.91;61.14;95906.63;5051861;28;20255;-84
2021/09/11 09:58:41;;;;;;;5.38;4.97;;;;;;;22.94;60.66;95905.34;5051959;28;20232;-84
2021/09/11 10:01:08;;;;;;;5.00;4.60;;;;;;;22.95;60.73;95896.44;5052100;28;20201;-84
2021/09/11 10:03:34;;;;;;;4.78;4.47;;;;;;;22.93;60.28;95906.38;5051851;28;20224;-84
2021/09/11 10:06:04;;;;;;;5.32;4.93;;;;;;;22.82;59.53;95899.44;5051071;28;20233;-84
2021/09/11 10:08:35;;;;;;;5.15;4.68;;;;;;;22.89;59.71;95895.59;5051718;28;20229;-84
2021/09/11 10:11:10;;;;;;;5.13;4.72;;;;;;;22.95;59.44;95891.97;5051949;28;20229;-83
2021/09/11 10:13:37;;;;;;;4.82;4.53;;;;;;;22.88;59.23;95896.66;5051944;28;20201;-84
2021/09/11 10:16:06;;;;;;;5.45;5.05;;;;;;;22.91;59.49;95896.13;5051978;28;20233;-84
2021/09/11 10:18:45;;;;;;;5.25;4.85;;;;;;;22.99;59.22;95892.28;5051648;28;20308;-83
2021/09/11 10:21:14;;;;;;;5.22;4.88;;;;;;;23.26;59.06;95894.94;5052309;28;20256;-84
2021/09/11 10:23:43;;;;;;;5.70;5.30;;;;;;;23.46;58.61;95889.84;5052469;28;20299;-84
2021/09/11 10:26:44;;;;;;;5.35;4.95;;;;;;;23.47;58.29;95880.94;5051815;28;20198;-84
2021/09/11 10:29:39;;;;;;;5.60;5.07;;;;;;;23.41;58.36;95897.69;5051390;28;20217;-84
2021/09/11 10:32:07;;;;;;;5.53;4.93;;;;;;;23.45;59.34;95887.47;5052228;28;20222;-84
2021/09/11 10:34:45;;;;;;;6.90;4.95;;;;;;;23.45;57.89;95883.00;5051589;28;20692;-84
2021/09/11 10:37:13;;;;;;;5.32;4.93;;;;;;;23.42;58.39;95883.50;5051742;28;20287;-83
2021/09/11 10:39:44;;;;;;;5.70;5.05;;;;;;;23.50;58.55;95877.78;5051024;28;20233;-84
2021/09/11 10:42:10;;;;;;;5.07;4.68;;;;;;;23.60;58.66;95870.03;5051723;28;20201;-83
2021/09/11 10:44:40;;;;;;;5.03;4.60;;;;;;;23.81;59.01;95864.91;5050845;28;20251;-84
2021/09/11 10:47:06;;;;;;;6.40;4.57;;;;;;;23.99;57.81;95869.75;5051212;28;20197;-84
2021/09/11 10:49:35;;;;;;;5.43;4.38;;;;;;;24.04;56.37;95860.06;5050840;28;20271;-84
2021/09/11 10:52:04;;;;;;;6.30;4.60;;;;;;;24.08;57.47;95862.97;5050654;28;20237;-84
2021/09/11 10:54:32;;;;;;;4.75;4.35;;;;;;;23.90;56.57;95863.38;5050631;28;20605;-84
2021/09/11 10:57:09;;;;;;;4.50;4.10;;;;;;;23.71;56.99;95860.34;5050474;28;20202;-84
2021/09/11 10:59:43;;;;;;;6.40;4.90;;;;;;;23.69;57.99;95852.72;5050533;28;20596;-84
2021/09/11 11:02:12;;;;;;;5.25;4.70;;;;;;;23.79;57.73;95853.84;5050693;28;20208;-84
2021/09/11 11:04:41;;;;;;;5.60;5.10;;;;;;;23.88;58.68;95847.84;5041648;28;20205;-84
2021/09/11 11:07:09;;;;;;;5.13;4.68;;;;;;;24.00;58.62;95850.31;5051378;28;20630;-84
2021/09/11 11:09:39;;;;;;;5.00;4.60;;;;;;;24.08;58.19;95847.97;5030887;28;20225;-84
2021/09/11 11:12:08;;;;;;;5.32;4.82;;;;;;;24.14;58.12;95846.16;5039604;28;20225;-84
2021/09/11 11:14:37;;;;;;;4.53;4.13;;;;;;;24.23;57.34;95843.84;5050299;28;20198;-84
2021/09/11 11:17:04;;;;;;;4.68;4.38;;;;;;;24.35;56.26;95839.19;5051089;28;20735;-84
2021/09/11 11:19:33;;;;;;;4.38;4.07;;;;;;;24.39;56.92;95842.91;5050254;28;20221;-83
2021/09/11 11:22:02;;;;;;;5.05;4.65;;;;;;;24.39;57.61;95842.91;5049955;28;20568;-84
2021/09/11 11:24:30;;;;;;;4.95;4.57;;;;;;;24.23;57.98;95836.75;5049827;28;20232;-84
2021/09/11 11:27:00;;;;;;;5.30;4.60;;;;;;;24.17;57.13;95835.13;5050302;28;20733;-85
2021/09/11 11:29:29;;;;;;;5.10;4.70;;;;;;;24.01;57.17;95833.47;5049994;28;20224;-85
2021/09/11 11:31:56;;;;;;;4.85;4.45;;;;;;;23.93;57.64;95836.56;5049940;28;20773;-86